sensor_id;sensor_type;location;lat;lon;timestamp;P1;durP1;ratioP1;P2;durP2;ratioP2
14516;SDS011;7344;50.864;4.362;2023-10-09T00:01:05;9.37;;;7.23;;
14516;SDS011;7344;50.864;4.362;2023-10-09T00:03:45;9.53;;;7.80;;
14516;SDS011;7344;50.864;4.362;2023-10-09T00:06:17;9.17;;;7.33;;
14516;SDS011;7344;50.864;4.362;2023-10-09T00:08:49;11.80;;;8.38;;
14516;SDS011;7344;50.864;4.362;2023-10-09T00:11:19;10.63;;;7.80;;
14516;SDS011;7344;50.864;4.362;2023-10-09T00:13:46;10.13;;;7.60;;
14516;SDS011;7344;50.864;4.362;2023-10-09T00:16:17;11.53;;;7.77;;
14516;SDS011;7344;50.864;4.362;2023-10-09T00:19:05;10.47;;;7.70;;
14516;SDS011;7344;50.864;4.362;2023-10-09T00:21:51;9.77;;;7.38;;
14516;SDS011;7344;50.864;4.362;2023-10-09T00:24:20;9.33;;;7.53;;
14516;SDS011;7344;50.864;4.362;2023-10-09T00:26:52;12.73;;;8.13;;
14516;SDS011;7344;50.864;4.362;2023-10-09T00:29:26;13.05;;;8.27;;
14516;SDS011;7344;50.864;4.362;2023-10-09T00:31:59;14.43;;;8.32;;
14516;SDS011;7344;50.864;4.362;2023-10-09T00:34:43;12.03;;;8.67;;
14516;SDS011;7344;50.864;4.362;2023-10-09T00:37:09;10.07;;;7.80;;
14516;SDS011;7344;50.864;4.362;2023-10-09T00:39:41;11.03;;;8.37;;
14516;SDS011;7344;50.864;4.362;2023-10-09T00:42:09;15.52;;;8.60;;
14516;SDS011;7344;50.864;4.362;2023-10-09T00:44:38;9.77;;;8.23;;
14516;SDS011;7344;50.864;4.362;2023-10-09T00:47:13;13.47;;;8.03;;
14516;SDS011;7344;50.864;4.362;2023-10-09T00:50:03;14.32;;;8.60;;
14516;SDS011;7344;50.864;4.362;2023-10-09T00:52:41;10.33;;;7.80;;
14516;SDS011;7344;50.864;4.362;2023-10-09T00:55:26;13.07;;;10.10;;
14516;SDS011;7344;50.864;4.362;2023-10-09T00:58:13;10.03;;;8.13;;
14516;SDS011;7344;50.864;4.362;2023-10-09T01:00:40;11.23;;;8.17;;
14516;SDS011;7344;50.864;4.362;2023-10-09T01:03:09;12.00;;;8.13;;
14516;SDS011;7344;50.864;4.362;2023-10-09T01:05:41;10.73;;;8.23;;
14516;SDS011;7344;50.864;4.362;2023-10-09T01:08:17;9.27;;;8.23;;
14516;SDS011;7344;50.864;4.362;2023-10-09T01:10:50;11.43;;;8.93;;
14516;SDS011;7344;50.864;4.362;2023-10-09T01:13:21;11.13;;;8.50;;
14516;SDS011;7344;50.864;4.362;2023-10-09T01:16:05;16.07;;;8.70;;
14516;SDS011;7344;50.864;4.362;2023-10-09T01:18:32;13.70;;;9.13;;
14516;SDS011;7344;50.864;4.362;2023-10-09T01:21:02;12.17;;;8.67;;
14516;SDS011;7344;50.864;4.362;2023-10-09T01:23:28;13.57;;;8.57;;
14516;SDS011;7344;50.864;4.362;2023-10-09T01:25:54;9.57;;;8.40;;
14516;SDS011;7344;50.864;4.362;2023-10-09T01:28:20;10.53;;;8.53;;
14516;SDS011;7344;50.864;4.362;2023-10-09T01:30:46;12.07;;;9.17;;
14516;SDS011;7344;50.864;4.362;2023-10-09T01:33:12;12.90;;;8.70;;
14516;SDS011;7344;50.864;4.362;2023-10-09T01:35:47;12.27;;;8.57;;
14516;SDS011;7344;50.864;4.362;2023-10-09T01:38:14;12.70;;;9.07;;
14516;SDS011;7344;50.864;4.362;2023-10-09T01:40:40;20.47;;;9.50;;
14516;SDS011;7344;50.864;4.362;2023-10-09T01:43:08;10.47;;;8.60;;
14516;SDS011;7344;50.864;4.362;2023-10-09T01:45:37;12.03;;;8.83;;
14516;SDS011;7344;50.864;4.362;2023-10-09T01:48:12;10.63;;;8.77;;
14516;SDS011;7344;50.864;4.362;2023-10-09T01:50:40;12.37;;;8.70;;
14516;SDS011;7344;50.864;4.362;2023-10-09T01:53:07;13.20;;;9.10;;
14516;SDS011;7344;50.864;4.362;2023-10-09T01:55:33;11.93;;;8.97;;
14516;SDS011;7344;50.864;4.362;2023-10-09T01:58:06;11.77;;;8.93;;
14516;SDS011;7344;50.864;4.362;2023-10-09T02:00:49;13.27;;;9.33;;
14516;SDS011;7344;50.864;4.362;2023-10-09T02:03:21;12.03;;;8.40;;
14516;SDS011;7344;50.864;4.362;2023-10-09T02:05:52;15.13;;;9.50;;
14516;SDS011;7344;50.864;4.362;2023-10-09T02:08:50;11.83;;;8.67;;
14516;SDS011;7344;50.864;4.362;2023-10-09T02:11:19;11.30;;;8.83;;
14516;SDS011;7344;50.864;4.362;2023-10-09T02:14:00;15.33;;;9.40;;
14516;SDS011;7344;50.864;4.362;2023-10-09T02:16:27;12.87;;;9.20;;
14516;SDS011;7344;50.864;4.362;2023-10-09T02:19:06;13.03;;;9.30;;
14516;SDS011;7344;50.864;4.362;2023-10-09T02:21:33;14.97;;;9.90;;
14516;SDS011;7344;50.864;4.362;2023-10-09T02:24:04;12.00;;;9.17;;
14516;SDS011;7344;50.864;4.362;2023-10-09T02:26:32;16.73;;;9.63;;
14516;SDS011;7344;50.864;4.362;2023-10-09T02:28:58;17.50;;;10.10;;
14516;SDS011;7344;50.864;4.362;2023-10-09T02:31:27;12.07;;;8.83;;
14516;SDS011;7344;50.864;4.362;2023-10-09T02:34:00;13.67;;;9.50;;
14516;SDS011;7344;50.864;4.362;2023-10-09T02:36:30;15.70;;;10.13;;
14516;SDS011;7344;50.864;4.362;2023-10-09T02:38:56;13.90;;;9.83;;
14516;SDS011;7344;50.864;4.362;2023-10-09T02:41:22;13.67;;;9.60;;
14516;SDS011;7344;50.864;4.362;2023-10-09T02:43:48;15.90;;;9.83;;
14516;SDS011;7344;50.864;4.362;2023-10-09T02:46:20;16.47;;;10.37;;
14516;SDS011;7344;50.864;4.362;2023-10-09T02:48:54;16.03;;;9.87;;
14516;SDS011;7344;50.864;4.362;2023-10-09T02:51:24;13.10;;;9.20;;
14516;SDS011;7344;50.864;4.362;2023-10-09T02:53:56;14.27;;;10.67;;
14516;SDS011;7344;50.864;4.362;2023-10-09T02:56:23;15.30;;;10.10;;
14516;SDS011;7344;50.864;4.362;2023-10-09T02:59:12;14.47;;;9.10;;
14516;SDS011;7344;50.864;4.362;2023-10-09T03:01:39;11.83;;;9.67;;
14516;SDS011;7344;50.864;4.362;2023-10-09T03:04:05;14.10;;;10.23;;
14516;SDS011;7344;50.864;4.362;2023-10-09T03:06:32;14.50;;;9.70;;
14516;SDS011;7344;50.864;4.362;2023-10-09T03:09:00;12.03;;;9.67;;
14516;SDS011;7344;50.864;4.362;2023-10-09T03:11:41;12.37;;;9.83;;
14516;SDS011;7344;50.864;4.362;2023-10-09T03:14:18;13.53;;;10.37;;
14516;SDS011;7344;50.864;4.362;2023-10-09T03:16:45;13.53;;;9.90;;
14516;SDS011;7344;50.864;4.362;2023-10-09T03:19:13;12.57;;;9.60;;
14516;SDS011;7344;50.864;4.362;2023-10-09T03:21:39;14.63;;;10.07;;
14516;SDS011;7344;50.864;4.362;2023-10-09T03:24:05;14.17;;;9.57;;
14516;SDS011;7344;50.864;4.362;2023-10-09T03:26:32;12.50;;;10.40;;
14516;SDS011;7344;50.864;4.362;2023-10-09T03:28:57;15.17;;;10.33;;
14516;SDS011;7344;50.864;4.362;2023-10-09T03:31:26;15.00;;;10.17;;
14516;SDS011;7344;50.864;4.362;2023-10-09T03:33:56;17.73;;;11.00;;
14516;SDS011;7344;50.864;4.362;2023-10-09T03:36:22;17.43;;;10.30;;
14516;SDS011;7344;50.864;4.362;2023-10-09T03:38:51;16.53;;;10.97;;
14516;SDS011;7344;50.864;4.362;2023-10-09T03:41:20;15.97;;;10.77;;
14516;SDS011;7344;50.864;4.362;2023-10-09T03:43:46;12.93;;;10.07;;
14516;SDS011;7344;50.864;4.362;2023-10-09T03:46:12;14.87;;;10.40;;
14516;SDS011;7344;50.864;4.362;2023-10-09T03:48:51;14.60;;;10.37;;
14516;SDS011;7344;50.864;4.362;2023-10-09T03:51:17;15.10;;;10.07;;
14516;SDS011;7344;50.864;4.362;2023-10-09T03:53:50;15.90;;;10.53;;
14516;SDS011;7344;50.864;4.362;2023-10-09T03:56:18;16.37;;;10.40;;
14516;SDS011;7344;50.864;4.362;2023-10-09T03:58:46;13.80;;;10.50;;
14516;SDS011;7344;50.864;4.362;2023-10-09T04:01:18;13.03;;;10.03;;
14516;SDS011;7344;50.864;4.362;2023-10-09T04:03:55;18.17;;;10.60;;
14516;SDS011;7344;50.864;4.362;2023-10-09T04:06:24;13.57;;;10.33;;
14516;SDS011;7344;50.864;4.362;2023-10-09T04:09:00;13.27;;;10.07;;
14516;SDS011;7344;50.864;4.362;2023-10-09T04:11:50;12.90;;;10.00;;
14516;SDS011;7344;50.864;4.362;2023-10-09T04:14:35;15.33;;;10.33;;
14516;SDS011;7344;50.864;4.362;2023-10-09T04:17:20;12.20;;;9.90;;
14516;SDS011;7344;50.864;4.362;2023-10-09T04:19:59;14.80;;;10.23;;
14516;SDS011;7344;50.864;4.362;2023-10-09T04:22:40;15.20;;;10.73;;
14516;SDS011;7344;50.864;4.362;2023-10-09T04:25:19;12.97;;;9.87;;
14516;SDS011;7344;50.864;4.362;2023-10-09T04:27:53;13.90;;;10.37;;
14516;SDS011;7344;50.864;4.362;2023-10-09T04:30:37;16.13;;;10.27;;
14516;SDS011;7344;50.864;4.362;2023-10-09T04:33:14;13.70;;;10.40;;
14516;SDS011;7344;50.864;4.362;2023-10-09T04:36:07;11.20;;;9.30;;
14516;SDS011;7344;50.864;4.362;2023-10-09T04:38:46;12.37;;;10.30;;
14516;SDS011;7344;50.864;4.362;2023-10-09T04:41:21;13.47;;;9.80;;
14516;SDS011;7344;50.864;4.362;2023-10-09T04:43:54;13.50;;;10.43;;
14516;SDS011;7344;50.864;4.362;2023-10-09T04:46:41;14.67;;;11.23;;
14516;SDS011;7344;50.864;4.362;2023-10-09T04:49:09;16.70;;;10.50;;
14516;SDS011;7344;50.864;4.362;2023-10-09T04:51:54;17.37;;;10.93;;
14516;SDS011;7344;50.864;4.362;2023-10-09T04:54:43;14.23;;;10.77;;
14516;SDS011;7344;50.864;4.362;2023-10-09T04:57:28;14.43;;;10.30;;
14516;SDS011;7344;50.864;4.362;2023-10-09T04:59:54;13.80;;;10.80;;
14516;SDS011;7344;50.864;4.362;2023-10-09T05:02:23;19.20;;;10.80;;
14516;SDS011;7344;50.864;4.362;2023-10-09T05:04:49;17.80;;;12.00;;
14516;SDS011;7344;50.864;4.362;2023-10-09T05:07:26;16.33;;;10.80;;
14516;SDS011;7344;50.864;4.362;2023-10-09T05:10:11;20.70;;;10.80;;
14516;SDS011;7344;50.864;4.362;2023-10-09T05:12:45;18.50;;;11.47;;
14516;SDS011;7344;50.864;4.362;2023-10-09T05:15:22;17.17;;;11.03;;
14516;SDS011;7344;50.864;4.362;2023-10-09T05:17:54;15.33;;;10.87;;
14516;SDS011;7344;50.864;4.362;2023-10-09T05:20:27;18.73;;;11.27;;
14516;SDS011;7344;50.864;4.362;2023-10-09T05:22:53;15.57;;;11.30;;
14516;SDS011;7344;50.864;4.362;2023-10-09T05:25:44;16.90;;;11.30;;
14516;SDS011;7344;50.864;4.362;2023-10-09T05:28:18;17.13;;;11.97;;
14516;SDS011;7344;50.864;4.362;2023-10-09T05:30:56;16.23;;;11.77;;
14516;SDS011;7344;50.864;4.362;2023-10-09T05:33:33;17.40;;;11.27;;
14516;SDS011;7344;50.864;4.362;2023-10-09T05:36:02;16.77;;;11.47;;
14516;SDS011;7344;50.864;4.362;2023-10-09T05:38:47;19.17;;;11.83;;
14516;SDS011;7344;50.864;4.362;2023-10-09T05:41:23;18.20;;;12.30;;
14516;SDS011;7344;50.864;4.362;2023-10-09T05:44:31;21.63;;;12.20;;
14516;SDS011;7344;50.864;4.362;2023-10-09T05:47:15;17.00;;;11.67;;
14516;SDS011;7344;50.864;4.362;2023-10-09T05:49:59;14.40;;;11.17;;
14516;SDS011;7344;50.864;4.362;2023-10-09T05:52:34;16.23;;;11.57;;
14516;SDS011;7344;50.864;4.362;2023-10-09T05:55:05;18.67;;;12.47;;
14516;SDS011;7344;50.864;4.362;2023-10-09T05:57:50;21.07;;;12.03;;
14516;SDS011;7344;50.864;4.362;2023-10-09T06:00:30;18.57;;;12.03;;
14516;SDS011;7344;50.864;4.362;2023-10-09T06:03:14;20.37;;;12.40;;
14516;SDS011;7344;50.864;4.362;2023-10-09T06:08:31;16.13;;;12.17;;
14516;SDS011;7344;50.864;4.362;2023-10-09T06:11:13;34.93;;;14.37;;
14516;SDS011;7344;50.864;4.362;2023-10-09T06:13:58;18.40;;;12.60;;
14516;SDS011;7344;50.864;4.362;2023-10-09T06:16:34;19.67;;;12.20;;
14516;SDS011;7344;50.864;4.362;2023-10-09T06:19:21;17.43;;;12.07;;
14516;SDS011;7344;50.864;4.362;2023-10-09T06:21:47;21.83;;;12.27;;
14516;SDS011;7344;50.864;4.362;2023-10-09T06:24:31;17.93;;;12.27;;
14516;SDS011;7344;50.864;4.362;2023-10-09T06:27:15;20.73;;;12.93;;
14516;SDS011;7344;50.864;4.362;2023-10-09T06:29:56;16.37;;;12.13;;
14516;SDS011;7344;50.864;4.362;2023-10-09T06:32:38;19.13;;;11.67;;
14516;SDS011;7344;50.864;4.362;2023-10-09T06:35:16;17.73;;;12.67;;
14516;SDS011;7344;50.864;4.362;2023-10-09T06:37:44;21.83;;;12.77;;
14516;SDS011;7344;50.864;4.362;2023-10-09T06:43:13;16.10;;;12.20;;
14516;SDS011;7344;50.864;4.362;2023-10-09T06:45:47;23.70;;;13.03;;
14516;SDS011;7344;50.864;4.362;2023-10-09T06:48:20;21.27;;;12.77;;
14516;SDS011;7344;50.864;4.362;2023-10-09T06:51:02;22.80;;;13.27;;
14516;SDS011;7344;50.864;4.362;2023-10-09T06:53:40;18.00;;;12.20;;
14516;SDS011;7344;50.864;4.362;2023-10-09T07:01:46;22.23;;;13.73;;
14516;SDS011;7344;50.864;4.362;2023-10-09T07:04:32;17.80;;;12.57;;
14516;SDS011;7344;50.864;4.362;2023-10-09T07:07:01;19.60;;;12.87;;
14516;SDS011;7344;50.864;4.362;2023-10-09T07:09:32;21.67;;;13.07;;
14516;SDS011;7344;50.864;4.362;2023-10-09T07:12:16;21.07;;;13.60;;
14516;SDS011;7344;50.864;4.362;2023-10-09T07:14:51;22.90;;;12.88;;
14516;SDS011;7344;50.864;4.362;2023-10-09T07:17:26;22.25;;;12.90;;
14516;SDS011;7344;50.864;4.362;2023-10-09T07:19:58;22.57;;;13.20;;
14516;SDS011;7344;50.864;4.362;2023-10-09T07:22:41;18.13;;;12.60;;
14516;SDS011;7344;50.864;4.362;2023-10-09T07:25:21;21.48;;;13.30;;
14516;SDS011;7344;50.864;4.362;2023-10-09T07:27:57;19.38;;;12.55;;
14516;SDS011;7344;50.864;4.362;2023-10-09T07:30:25;19.77;;;13.32;;
14516;SDS011;7344;50.864;4.362;2023-10-09T07:32:58;18.35;;;13.68;;
14516;SDS011;7344;50.864;4.362;2023-10-09T07:35:31;23.27;;;13.27;;
14516;SDS011;7344;50.864;4.362;2023-10-09T07:38:20;20.70;;;12.98;;
14516;SDS011;7344;50.864;4.362;2023-10-09T07:40:49;21.48;;;13.10;;
14516;SDS011;7344;50.864;4.362;2023-10-09T07:43:32;21.23;;;12.45;;
14516;SDS011;7344;50.864;4.362;2023-10-09T07:46:05;18.70;;;13.82;;
14516;SDS011;7344;50.864;4.362;2023-10-09T07:48:50;24.17;;;12.45;;
14516;SDS011;7344;50.864;4.362;2023-10-09T07:51:19;17.40;;;12.68;;
14516;SDS011;7344;50.864;4.362;2023-10-09T07:53:50;17.33;;;11.45;;
14516;SDS011;7344;50.864;4.362;2023-10-09T07:56:23;15.55;;;11.30;;
14516;SDS011;7344;50.864;4.362;2023-10-09T07:58:49;19.55;;;12.10;;
14516;SDS011;7344;50.864;4.362;2023-10-09T08:01:15;16.42;;;11.45;;
14516;SDS011;7344;50.864;4.362;2023-10-09T08:03:50;15.82;;;11.55;;
14516;SDS011;7344;50.864;4.362;2023-10-09T08:06:36;18.02;;;11.90;;
14516;SDS011;7344;50.864;4.362;2023-10-09T08:09:08;16.92;;;12.93;;
14516;SDS011;7344;50.864;4.362;2023-10-09T08:11:37;17.20;;;12.25;;
14516;SDS011;7344;50.864;4.362;2023-10-09T08:14:22;17.80;;;12.57;;
14516;SDS011;7344;50.864;4.362;2023-10-09T08:17:00;17.67;;;13.02;;
14516;SDS011;7344;50.864;4.362;2023-10-09T08:19:42;19.88;;;12.98;;
14516;SDS011;7344;50.864;4.362;2023-10-09T08:24:48;20.85;;;14.10;;
14516;SDS011;7344;50.864;4.362;2023-10-09T08:27:23;22.13;;;13.45;;
14516;SDS011;7344;50.864;4.362;2023-10-09T08:29:57;21.30;;;13.18;;
14516;SDS011;7344;50.864;4.362;2023-10-09T08:32:46;19.25;;;12.88;;
14516;SDS011;7344;50.864;4.362;2023-10-09T08:35:28;18.27;;;13.07;;
14516;SDS011;7344;50.864;4.362;2023-10-09T08:38:12;23.92;;;12.55;;
14516;SDS011;7344;50.864;4.362;2023-10-09T08:40:48;21.17;;;12.25;;
14516;SDS011;7344;50.864;4.362;2023-10-09T08:43:16;19.05;;;12.85;;
14516;SDS011;7344;50.864;4.362;2023-10-09T08:45:49;18.55;;;12.48;;
14516;SDS011;7344;50.864;4.362;2023-10-09T08:48:18;19.98;;;13.02;;
14516;SDS011;7344;50.864;4.362;2023-10-09T08:50:47;19.40;;;13.88;;
14516;SDS011;7344;50.864;4.362;2023-10-09T08:53:19;23.30;;;13.75;;
14516;SDS011;7344;50.864;4.362;2023-10-09T08:55:46;20.60;;;13.82;;
14516;SDS011;7344;50.864;4.362;2023-10-09T08:58:14;25.88;;;13.48;;
14516;SDS011;7344;50.864;4.362;2023-10-09T09:00:44;19.35;;;13.35;;
14516;SDS011;7344;50.864;4.362;2023-10-09T09:03:18;18.75;;;12.15;;
14516;SDS011;7344;50.864;4.362;2023-10-09T09:06:00;22.52;;;13.80;;
14516;SDS011;7344;50.864;4.362;2023-10-09T09:08:27;19.58;;;13.43;;
14516;SDS011;7344;50.864;4.362;2023-10-09T09:11:10;24.92;;;13.57;;
14516;SDS011;7344;50.864;4.362;2023-10-09T09:13:38;17.27;;;13.02;;
14516;SDS011;7344;50.864;4.362;2023-10-09T09:16:13;19.63;;;12.80;;
14516;SDS011;7344;50.864;4.362;2023-10-09T09:21:17;18.75;;;13.52;;
14516;SDS011;7344;50.864;4.362;2023-10-09T09:23:59;18.90;;;12.80;;
14516;SDS011;7344;50.864;4.362;2023-10-09T09:26:40;21.02;;;13.02;;
14516;SDS011;7344;50.864;4.362;2023-10-09T09:32:01;20.52;;;13.73;;
14516;SDS011;7344;50.864;4.362;2023-10-09T09:37:23;18.20;;;13.38;;
14516;SDS011;7344;50.864;4.362;2023-10-09T09:39:57;17.98;;;12.45;;
14516;SDS011;7344;50.864;4.362;2023-10-09T09:42:25;18.23;;;12.88;;
14516;SDS011;7344;50.864;4.362;2023-10-09T09:44:58;19.15;;;13.20;;
14516;SDS011;7344;50.864;4.362;2023-10-09T09:47:26;18.55;;;12.95;;
14516;SDS011;7344;50.864;4.362;2023-10-09T09:49:55;24.23;;;12.75;;
14516;SDS011;7344;50.864;4.362;2023-10-09T09:52:37;18.40;;;12.95;;
14516;SDS011;7344;50.864;4.362;2023-10-09T09:55:06;20.80;;;13.10;;
14516;SDS011;7344;50.864;4.362;2023-10-09T09:57:41;21.58;;;12.52;;
14516;SDS011;7344;50.864;4.362;2023-10-09T10:00:10;17.83;;;12.50;;
14516;SDS011;7344;50.864;4.362;2023-10-09T10:03:01;18.33;;;11.70;;
14516;SDS011;7344;50.864;4.362;2023-10-09T10:05:32;14.77;;;11.40;;
14516;SDS011;7344;50.864;4.362;2023-10-09T10:07:59;17.52;;;12.43;;
14516;SDS011;7344;50.864;4.362;2023-10-09T10:10:39;16.17;;;12.52;;
14516;SDS011;7344;50.864;4.362;2023-10-09T10:16:06;20.15;;;13.63;;
14516;SDS011;7344;50.864;4.362;2023-10-09T10:18:59;17.85;;;13.18;;
14516;SDS011;7344;50.864;4.362;2023-10-09T10:21:43;17.02;;;12.77;;
14516;SDS011;7344;50.864;4.362;2023-10-09T10:30:26;22.83;;;13.73;;
14516;SDS011;7344;50.864;4.362;2023-10-09T10:35:17;18.15;;;12.63;;
14516;SDS011;7344;50.864;4.362;2023-10-09T10:37:58;16.08;;;11.13;;
14516;SDS011;7344;50.864;4.362;2023-10-09T10:40:32;17.35;;;12.82;;
14516;SDS011;7344;50.864;4.362;2023-10-09T10:43:17;16.33;;;12.00;;
14516;SDS011;7344;50.864;4.362;2023-10-09T10:46:18;18.23;;;12.90;;
14516;SDS011;7344;50.864;4.362;2023-10-09T10:48:52;16.75;;;12.13;;
14516;SDS011;7344;50.864;4.362;2023-10-09T10:51:26;15.35;;;12.80;;
14516;SDS011;7344;50.864;4.362;2023-10-09T10:54:02;16.52;;;12.45;;
14516;SDS011;7344;50.864;4.362;2023-10-09T10:56:47;15.82;;;12.60;;
14516;SDS011;7344;50.864;4.362;2023-10-09T10:59:13;17.85;;;11.98;;
14516;SDS011;7344;50.864;4.362;2023-10-09T11:01:47;15.77;;;11.40;;
14516;SDS011;7344;50.864;4.362;2023-10-09T11:04:23;15.70;;;12.30;;
14516;SDS011;7344;50.864;4.362;2023-10-09T11:06:52;17.20;;;11.50;;
14516;SDS011;7344;50.864;4.362;2023-10-09T11:09:42;20.13;;;12.98;;
14516;SDS011;7344;50.864;4.362;2023-10-09T11:12:30;16.35;;;11.88;;
14516;SDS011;7344;50.864;4.362;2023-10-09T11:15:15;15.80;;;11.55;;
14516;SDS011;7344;50.864;4.362;2023-10-09T11:18:04;17.75;;;12.02;;
14516;SDS011;7344;50.864;4.362;2023-10-09T11:20:42;17.55;;;12.77;;
14516;SDS011;7344;50.864;4.362;2023-10-09T11:23:21;17.55;;;11.80;;
14516;SDS011;7344;50.864;4.362;2023-10-09T11:26:08;16.35;;;11.90;;
14516;SDS011;7344;50.864;4.362;2023-10-09T11:28:46;18.42;;;11.50;;
14516;SDS011;7344;50.864;4.362;2023-10-09T11:31:38;15.77;;;11.32;;
14516;SDS011;7344;50.864;4.362;2023-10-09T11:34:27;17.65;;;12.00;;
14516;SDS011;7344;50.864;4.362;2023-10-09T11:37:03;17.48;;;11.13;;
14516;SDS011;7344;50.864;4.362;2023-10-09T11:39:38;18.00;;;12.73;;
14516;SDS011;7344;50.864;4.362;2023-10-09T11:42:20;15.93;;;11.35;;
14516;SDS011;7344;50.864;4.362;2023-10-09T11:45:04;16.80;;;11.23;;
14516;SDS011;7344;50.864;4.362;2023-10-09T11:47:48;17.38;;;11.73;;
14516;SDS011;7344;50.864;4.362;2023-10-09T11:50:40;15.98;;;11.45;;
14516;SDS011;7344;50.864;4.362;2023-10-09T11:53:16;15.68;;;11.07;;
14516;SDS011;7344;50.864;4.362;2023-10-09T11:55:58;18.92;;;11.02;;
14516;SDS011;7344;50.864;4.362;2023-10-09T11:58:25;15.77;;;10.80;;
14516;SDS011;7344;50.864;4.362;2023-10-09T12:00:51;14.95;;;10.63;;
14516;SDS011;7344;50.864;4.362;2023-10-09T12:03:30;14.88;;;10.82;;
14516;SDS011;7344;50.864;4.362;2023-10-09T12:06:01;15.93;;;10.70;;
14516;SDS011;7344;50.864;4.362;2023-10-09T12:08:33;21.17;;;11.55;;
14516;SDS011;7344;50.864;4.362;2023-10-09T12:10:59;14.45;;;11.10;;
14516;SDS011;7344;50.864;4.362;2023-10-09T12:13:33;15.00;;;10.32;;
14516;SDS011;7344;50.864;4.362;2023-10-09T12:15:58;15.82;;;10.82;;
14516;SDS011;7344;50.864;4.362;2023-10-09T12:18:24;17.85;;;10.77;;
14516;SDS011;7344;50.864;4.362;2023-10-09T12:20:51;13.70;;;10.07;;
14516;SDS011;7344;50.864;4.362;2023-10-09T12:23:21;20.20;;;10.88;;
14516;SDS011;7344;50.864;4.362;2023-10-09T12:25:50;15.88;;;11.20;;
14516;SDS011;7344;50.864;4.362;2023-10-09T12:28:21;34.35;;;11.95;;
14516;SDS011;7344;50.864;4.362;2023-10-09T12:30:48;16.35;;;11.27;;
14516;SDS011;7344;50.864;4.362;2023-10-09T12:33:15;13.95;;;11.00;;
14516;SDS011;7344;50.864;4.362;2023-10-09T12:35:45;17.13;;;10.85;;
14516;SDS011;7344;50.864;4.362;2023-10-09T12:38:12;14.65;;;10.30;;
14516;SDS011;7344;50.864;4.362;2023-10-09T12:40:39;14.20;;;10.15;;
14516;SDS011;7344;50.864;4.362;2023-10-09T12:43:06;15.25;;;9.93;;
14516;SDS011;7344;50.864;4.362;2023-10-09T12:45:40;14.95;;;10.02;;
14516;SDS011;7344;50.864;4.362;2023-10-09T12:48:10;15.88;;;10.80;;
14516;SDS011;7344;50.864;4.362;2023-10-09T12:50:36;16.25;;;11.15;;
14516;SDS011;7344;50.864;4.362;2023-10-09T12:53:09;15.70;;;10.18;;
14516;SDS011;7344;50.864;4.362;2023-10-09T12:55:36;17.60;;;10.32;;
14516;SDS011;7344;50.864;4.362;2023-10-09T12:58:05;15.02;;;10.98;;
14516;SDS011;7344;50.864;4.362;2023-10-09T13:00:33;12.65;;;10.07;;
14516;SDS011;7344;50.864;4.362;2023-10-09T13:03:05;13.25;;;10.52;;
14516;SDS011;7344;50.864;4.362;2023-10-09T13:05:52;16.48;;;10.73;;
14516;SDS011;7344;50.864;4.362;2023-10-09T13:08:27;15.93;;;10.75;;
14516;SDS011;7344;50.864;4.362;2023-10-09T13:10:57;12.98;;;10.55;;
14516;SDS011;7344;50.864;4.362;2023-10-09T13:13:29;16.70;;;11.32;;
14516;SDS011;7344;50.864;4.362;2023-10-09T13:16:16;16.13;;;10.75;;
14516;SDS011;7344;50.864;4.362;2023-10-09T13:18:49;16.10;;;11.27;;
14516;SDS011;7344;50.864;4.362;2023-10-09T13:21:19;16.95;;;10.38;;
14516;SDS011;7344;50.864;4.362;2023-10-09T13:23:46;18.95;;;10.48;;
14516;SDS011;7344;50.864;4.362;2023-10-09T13:26:21;15.57;;;10.23;;
14516;SDS011;7344;50.864;4.362;2023-10-09T13:28:58;17.77;;;10.30;;
14516;SDS011;7344;50.864;4.362;2023-10-09T13:31:25;14.63;;;10.68;;
14516;SDS011;7344;50.864;4.362;2023-10-09T13:33:51;17.05;;;9.82;;
14516;SDS011;7344;50.864;4.362;2023-10-09T13:36:24;11.43;;;9.57;;
14516;SDS011;7344;50.864;4.362;2023-10-09T13:38:57;15.38;;;10.60;;
14516;SDS011;7344;50.864;4.362;2023-10-09T13:41:27;18.13;;;10.05;;
14516;SDS011;7344;50.864;4.362;2023-10-09T13:43:56;15.15;;;10.25;;
14516;SDS011;7344;50.864;4.362;2023-10-09T13:46:22;14.25;;;11.13;;
14516;SDS011;7344;50.864;4.362;2023-10-09T13:48:49;20.83;;;11.77;;
14516;SDS011;7344;50.864;4.362;2023-10-09T13:51:14;15.20;;;10.80;;
14516;SDS011;7344;50.864;4.362;2023-10-09T13:53:43;14.02;;;10.27;;
14516;SDS011;7344;50.864;4.362;2023-10-09T13:56:16;15.52;;;11.38;;
14516;SDS011;7344;50.864;4.362;2023-10-09T13:58:47;16.17;;;10.65;;
14516;SDS011;7344;50.864;4.362;2023-10-09T14:01:14;16.25;;;10.13;;
14516;SDS011;7344;50.864;4.362;2023-10-09T14:04:00;14.50;;;11.23;;
14516;SDS011;7344;50.864;4.362;2023-10-09T14:06:26;17.27;;;11.35;;
14516;SDS011;7344;50.864;4.362;2023-10-09T14:08:56;16.13;;;11.40;;
14516;SDS011;7344;50.864;4.362;2023-10-09T14:11:22;12.60;;;10.60;;
14516;SDS011;7344;50.864;4.362;2023-10-09T14:13:49;16.45;;;10.45;;
14516;SDS011;7344;50.864;4.362;2023-10-09T14:16:16;18.98;;;11.57;;
14516;SDS011;7344;50.864;4.362;2023-10-09T14:18:56;14.20;;;10.75;;
14516;SDS011;7344;50.864;4.362;2023-10-09T14:21:26;14.30;;;11.13;;
14516;SDS011;7344;50.864;4.362;2023-10-09T14:23:55;13.57;;;11.00;;
14516;SDS011;7344;50.864;4.362;2023-10-09T14:26:23;19.77;;;11.30;;
14516;SDS011;7344;50.864;4.362;2023-10-09T14:28:53;14.55;;;10.43;;
14516;SDS011;7344;50.864;4.362;2023-10-09T14:31:21;14.10;;;10.85;;
14516;SDS011;7344;50.864;4.362;2023-10-09T14:33:55;16.60;;;11.73;;
14516;SDS011;7344;50.864;4.362;2023-10-09T14:36:21;16.42;;;11.55;;
14516;SDS011;7344;50.864;4.362;2023-10-09T14:38:50;17.00;;;11.50;;
14516;SDS011;7344;50.864;4.362;2023-10-09T14:41:21;17.85;;;11.15;;
14516;SDS011;7344;50.864;4.362;2023-10-09T14:43:49;16.50;;;11.95;;
14516;SDS011;7344;50.864;4.362;2023-10-09T14:46:15;15.43;;;11.85;;
14516;SDS011;7344;50.864;4.362;2023-10-09T14:48:45;20.17;;;12.02;;
14516;SDS011;7344;50.864;4.362;2023-10-09T14:51:11;16.85;;;11.90;;
14516;SDS011;7344;50.864;4.362;2023-10-09T14:53:38;15.02;;;11.43;;
14516;SDS011;7344;50.864;4.362;2023-10-09T14:56:05;17.83;;;11.23;;
14516;SDS011;7344;50.864;4.362;2023-10-09T14:58:34;16.50;;;11.23;;
14516;SDS011;7344;50.864;4.362;2023-10-09T15:01:07;17.30;;;11.23;;
14516;SDS011;7344;50.864;4.362;2023-10-09T15:03:36;20.27;;;11.73;;
14516;SDS011;7344;50.864;4.362;2023-10-09T15:06:05;15.55;;;12.05;;
14516;SDS011;7344;50.864;4.362;2023-10-09T15:08:36;17.33;;;11.70;;
14516;SDS011;7344;50.864;4.362;2023-10-09T15:11:02;15.90;;;11.77;;
14516;SDS011;7344;50.864;4.362;2023-10-09T15:13:28;17.95;;;12.48;;
14516;SDS011;7344;50.864;4.362;2023-10-09T15:15:55;15.98;;;12.25;;
14516;SDS011;7344;50.864;4.362;2023-10-09T15:18:21;16.02;;;11.40;;
14516;SDS011;7344;50.864;4.362;2023-10-09T15:20:47;16.05;;;12.48;;
14516;SDS011;7344;50.864;4.362;2023-10-09T15:23:14;18.25;;;11.70;;
14516;SDS011;7344;50.864;4.362;2023-10-09T15:25:41;16.45;;;12.05;;
14516;SDS011;7344;50.864;4.362;2023-10-09T15:28:10;16.63;;;12.40;;
14516;SDS011;7344;50.864;4.362;2023-10-09T15:30:37;18.23;;;12.95;;
14516;SDS011;7344;50.864;4.362;2023-10-09T15:33:06;19.02;;;12.60;;
14516;SDS011;7344;50.864;4.362;2023-10-09T15:35:32;18.67;;;12.00;;
14516;SDS011;7344;50.864;4.362;2023-10-09T15:38:02;15.80;;;12.07;;
14516;SDS011;7344;50.864;4.362;2023-10-09T15:40:31;18.80;;;11.70;;
14516;SDS011;7344;50.864;4.362;2023-10-09T15:43:01;21.52;;;11.07;;
14516;SDS011;7344;50.864;4.362;2023-10-09T15:45:29;18.42;;;11.95;;
14516;SDS011;7344;50.864;4.362;2023-10-09T15:47:56;21.40;;;12.88;;
14516;SDS011;7344;50.864;4.362;2023-10-09T15:50:24;20.17;;;12.60;;